createdAt,value
2019-05-30T00:00:12.455Z,8.63
2019-05-30T00:02:29.739Z,9.40
2019-05-30T00:04:58.277Z,14.60
2019-05-30T00:07:26.814Z,8.87
2019-05-30T00:09:56.364Z,11.80
2019-05-30T00:12:24.987Z,10.33
2019-05-30T00:14:54.477Z,12.90
2019-05-30T00:17:23.125Z,11.30
2019-05-30T00:19:51.624Z,11.73
2019-05-30T00:22:20.166Z,9.70
2019-05-30T00:24:48.643Z,10.60
2019-05-30T00:27:17.119Z,10.70
2019-05-30T00:29:45.668Z,10.73
2019-05-30T00:32:14.147Z,11.20
2019-05-30T00:34:42.731Z,10.23
2019-05-30T00:37:11.203Z,11.83
2019-05-30T00:39:39.880Z,9.70
2019-05-30T00:42:08.393Z,10.73
2019-05-30T00:44:37.104Z,9.13
2019-05-30T00:47:06.457Z,9.00
2019-05-30T00:49:34.991Z,11.60
2019-05-30T00:52:04.976Z,9.90
2019-05-30T00:54:33.860Z,11.60
2019-05-30T00:57:02.794Z,10.10
2019-05-30T00:59:31.370Z,10.67
2019-05-30T01:02:00.674Z,10.77
2019-05-30T01:04:29.297Z,9.47
2019-05-30T01:06:58.964Z,9.83
2019-05-30T01:09:27.564Z,8.53
2019-05-30T01:11:57.014Z,7.63
2019-05-30T01:14:25.569Z,9.47
2019-05-30T01:16:54.063Z,9.40
2019-05-30T01:19:22.524Z,8.53
2019-05-30T01:21:52.126Z,9.37
2019-05-30T01:24:20.688Z,10.00
2019-05-30T01:26:49.509Z,8.87
2019-05-30T01:29:18.345Z,8.93
2019-05-30T01:31:46.876Z,8.17
2019-05-30T01:34:15.366Z,8.33
2019-05-30T01:36:43.834Z,7.90
2019-05-30T01:39:12.318Z,8.10
2019-05-30T01:41:40.896Z,9.07
2019-05-30T01:44:09.361Z,9.40
2019-05-30T01:46:37.853Z,9.77
2019-05-30T01:49:06.829Z,7.37
2019-05-30T01:51:35.456Z,8.73
2019-05-30T01:54:04.592Z,8.87
2019-05-30T01:56:33.499Z,8.53
2019-05-30T01:59:02.685Z,7.30
2019-05-30T02:01:31.338Z,8.60
2019-05-30T02:04:01.052Z,7.77
2019-05-30T02:06:29.697Z,7.97
2019-05-30T02:08:59.163Z,12.10
2019-05-30T02:11:27.940Z,7.10
2019-05-30T02:13:56.526Z,7.97
2019-05-30T02:16:25.001Z,7.50
2019-05-30T02:18:53.496Z,6.00
2019-05-30T02:21:22.047Z,9.53
2019-05-30T02:23:50.563Z,9.10
2019-05-30T02:26:19.106Z,7.27
2019-05-30T02:28:47.611Z,6.37
2019-05-30T02:31:16.073Z,8.07
2019-05-30T02:33:44.549Z,10.60
2019-05-30T02:36:13.095Z,7.10
2019-05-30T02:38:41.591Z,8.43
2019-05-30T02:41:12.262Z,7.33
2019-05-30T02:43:40.724Z,8.20
2019-05-30T02:46:10.657Z,14.30
2019-05-30T02:48:57.443Z,9.00
2019-05-30T02:51:10.760Z,7.60
2019-05-30T02:53:39.942Z,7.33
2019-05-30T02:56:10.190Z,10.20
2019-05-30T02:58:38.752Z,8.27
2019-05-30T03:01:09.167Z,7.60
2019-05-30T03:03:37.454Z,7.73
2019-05-30T03:06:06.975Z,10.03
2019-05-30T03:08:36.420Z,9.47
2019-05-30T03:11:07.233Z,9.27
2019-05-30T03:13:35.504Z,9.30
2019-05-30T03:16:05.034Z,9.40
2019-05-30T03:18:34.578Z,8.97
2019-05-30T03:21:03.293Z,7.13
2019-05-30T03:23:32.310Z,9.90
2019-05-30T03:26:02.419Z,8.67
2019-05-30T03:28:31.211Z,8.73
2019-05-30T03:31:00.040Z,8.17
2019-05-30T03:33:39.126Z,9.90
2019-05-30T03:35:58.730Z,9.77
2019-05-30T03:38:27.211Z,8.93
2019-05-30T03:40:55.751Z,9.87
2019-05-30T03:43:24.466Z,9.37
2019-05-30T03:45:53.350Z,10.13
2019-05-30T03:48:25.243Z,9.70
2019-05-30T03:50:56.962Z,9.63
2019-05-30T03:53:25.512Z,9.80
2019-05-30T03:55:57.206Z,10.47
2019-05-30T03:58:44.016Z,12.23
2019-05-30T04:01:21.532Z,9.70
2019-05-30T04:03:59.132Z,10.30
2019-05-30T04:06:33.566Z,10.30
2019-05-30T04:09:07.328Z,9.23
2019-05-30T04:11:51.636Z,10.27
2019-05-30T04:14:23.177Z,9.37
2019-05-30T04:16:51.671Z,8.57
2019-05-30T04:19:20.313Z,8.50
2019-05-30T04:21:48.964Z,9.03
2019-05-30T04:24:17.463Z,8.40
2019-05-30T04:26:46.056Z,8.93
2019-05-30T04:29:16.648Z,9.17
2019-05-30T04:31:44.824Z,9.43
2019-05-30T04:34:14.949Z,8.03
2019-05-30T04:36:43.478Z,7.97
2019-05-30T04:39:13.024Z,8.33
2019-05-30T04:41:41.602Z,10.43
2019-05-30T04:44:11.790Z,7.83
2019-05-30T04:46:40.301Z,8.60
2019-05-30T04:49:10.130Z,9.50
2019-05-30T04:51:39.213Z,7.07
2019-05-30T04:54:08.000Z,7.90
2019-05-30T04:56:36.621Z,7.47
2019-05-30T04:59:05.209Z,7.43
2019-05-30T05:01:33.746Z,7.20
2019-05-30T05:04:02.586Z,6.73
2019-05-30T05:06:31.293Z,7.47
2019-05-30T05:08:59.840Z,6.50
2019-05-30T05:11:28.546Z,7.07
2019-05-30T05:13:57.047Z,5.70
2019-05-30T05:16:35.000Z,7.37
2019-05-30T05:18:55.726Z,5.60
2019-05-30T05:21:24.291Z,5.77
2019-05-30T05:23:52.751Z,8.07
2019-05-30T05:26:21.641Z,7.93
2019-05-30T05:28:50.353Z,7.27
2019-05-30T05:31:18.808Z,7.57
2019-05-30T05:33:56.263Z,7.97
2019-05-30T05:36:18.773Z,6.77
2019-05-30T05:38:47.423Z,7.40
2019-05-30T05:41:16.143Z,9.53
2019-05-30T05:43:44.659Z,7.07
2019-05-30T05:46:13.214Z,6.90
2019-05-30T05:48:41.687Z,7.30
2019-05-30T05:51:10.316Z,8.50
2019-05-30T05:53:38.875Z,9.23
2019-05-30T05:56:07.536Z,9.63
2019-05-30T05:58:36.429Z,8.57
2019-05-30T06:01:06.253Z,7.00
2019-05-30T06:03:34.777Z,6.93
2019-05-30T06:06:03.293Z,7.70
2019-05-30T06:08:31.945Z,10.23
2019-05-30T06:11:00.404Z,10.03
2019-05-30T06:13:29.114Z,8.27
2019-05-30T06:15:57.626Z,9.23
2019-05-30T06:18:26.355Z,8.13
2019-05-30T06:20:54.846Z,9.00
2019-05-30T06:23:23.734Z,8.33
2019-05-30T06:25:52.317Z,9.70
2019-05-30T06:28:21.998Z,8.90
2019-05-30T06:30:50.937Z,10.60
2019-05-30T06:33:20.519Z,8.53
2019-05-30T06:35:49.112Z,7.53
2019-05-30T06:38:17.629Z,6.90
2019-05-30T06:40:46.204Z,7.77
2019-05-30T06:43:14.777Z,11.80
2019-05-30T06:45:43.420Z,8.50
2019-05-30T06:48:11.893Z,7.50
2019-05-30T06:50:40.471Z,8.40
2019-05-30T06:53:09.386Z,8.60
2019-05-30T06:55:38.215Z,9.83
2019-05-30T06:58:06.826Z,10.40
2019-05-30T07:00:35.541Z,7.73
2019-05-30T07:03:04.547Z,7.70
2019-05-30T07:05:34.577Z,8.67
2019-05-30T07:08:03.323Z,8.97
2019-05-30T07:10:33.016Z,8.90
2019-05-30T07:13:01.657Z,8.23
2019-05-30T07:15:31.353Z,6.97
2019-05-30T07:18:00.096Z,8.60
2019-05-30T07:20:29.688Z,8.03
2019-05-30T07:22:58.461Z,8.27
2019-05-30T07:25:27.873Z,10.03
2019-05-30T07:27:56.642Z,8.10
2019-05-30T07:30:25.838Z,8.00
2019-05-30T07:32:54.579Z,10.40
2019-05-30T07:35:23.919Z,10.40
2019-05-30T07:37:52.496Z,11.57
2019-05-30T07:40:21.225Z,9.97
2019-05-30T07:42:49.697Z,10.30
2019-05-30T07:45:18.410Z,12.50
2019-05-30T07:47:47.259Z,11.80
2019-05-30T07:50:16.613Z,10.23
2019-05-30T07:52:45.175Z,11.00
2019-05-30T07:55:13.808Z,8.40
2019-05-30T07:57:42.282Z,8.93
2019-05-30T08:00:13.427Z,7.93
2019-05-30T08:02:42.031Z,6.77
2019-05-30T08:05:23.436Z,6.33
2019-05-30T08:07:42.132Z,7.67
2019-05-30T08:10:11.224Z,7.10
2019-05-30T08:12:39.984Z,5.87
2019-05-30T08:15:10.194Z,6.63
2019-05-30T08:17:38.697Z,6.10
2019-05-30T08:20:08.407Z,5.50
2019-05-30T08:22:38.191Z,4.03
2019-05-30T08:25:07.855Z,4.40
2019-05-30T08:27:36.597Z,4.43
2019-05-30T08:30:10.543Z,6.43
2019-05-30T08:32:39.177Z,6.20
2019-05-30T08:35:09.483Z,7.97
2019-05-30T08:37:39.403Z,8.73
2019-05-30T08:40:09.904Z,8.87
2019-05-30T08:42:40.154Z,6.90
2019-05-30T08:45:11.039Z,8.30
2019-05-30T08:47:40.705Z,7.30
2019-05-30T08:50:10.294Z,6.67
2019-05-30T08:52:40.684Z,7.10
2019-05-30T08:55:10.488Z,7.53
2019-05-30T08:57:39.109Z,7.97
2019-05-30T09:00:08.829Z,7.10
2019-05-30T09:02:37.297Z,9.50
2019-05-30T09:05:07.564Z,6.90
2019-05-30T09:07:36.509Z,7.10
2019-05-30T09:10:09.135Z,7.13
2019-05-30T09:12:40.073Z,7.43
2019-05-30T09:15:13.982Z,11.07
2019-05-30T09:17:43.117Z,8.00
2019-05-30T09:20:13.242Z,7.83
2019-05-30T09:22:42.053Z,6.93
2019-05-30T09:25:12.870Z,7.50
2019-05-30T09:27:42.770Z,7.30
2019-05-30T09:30:13.983Z,5.13
2019-05-30T09:32:43.428Z,6.67
2019-05-30T09:35:13.313Z,7.90
2019-05-30T09:37:42.484Z,6.80
2019-05-30T09:40:15.020Z,6.50
2019-05-30T09:42:44.753Z,6.83
2019-05-30T09:45:16.951Z,6.73
2019-05-30T09:47:47.126Z,4.93
2019-05-30T09:50:19.065Z,6.77
2019-05-30T09:52:49.163Z,6.20
2019-05-30T09:55:18.528Z,5.33
2019-05-30T09:57:47.588Z,5.63
2019-05-30T10:00:20.917Z,6.13
2019-05-30T10:02:50.531Z,6.17
2019-05-30T10:05:23.335Z,6.00
2019-05-30T10:07:50.844Z,5.13
2019-05-30T10:10:19.769Z,5.27
2019-05-30T10:12:48.504Z,4.47
2019-05-30T10:15:18.989Z,5.47
2019-05-30T10:17:48.340Z,5.27
2019-05-30T10:20:19.520Z,5.23
2019-05-30T10:22:50.072Z,4.83
2019-05-30T10:25:18.938Z,4.20
2019-05-30T10:27:49.036Z,3.50
2019-05-30T10:30:18.182Z,4.27
2019-05-30T10:32:48.444Z,3.73
2019-05-30T10:35:17.174Z,5.40
2019-05-30T10:37:47.054Z,3.67
2019-05-30T10:40:16.563Z,2.73
2019-05-30T10:42:47.290Z,3.17
2019-05-30T10:45:17.426Z,3.27
2019-05-30T10:47:47.482Z,3.40
2019-05-30T10:50:17.288Z,4.27
2019-05-30T10:52:45.855Z,3.40
2019-05-30T10:55:16.572Z,4.23
2019-05-30T10:57:45.235Z,3.43
2019-05-30T11:00:18.125Z,3.47
2019-05-30T11:02:47.840Z,2.60
2019-05-30T11:05:20.309Z,2.73
2019-05-30T11:08:05.114Z,2.93
2019-05-30T11:10:34.273Z,3.00
2019-05-30T11:13:05.814Z,2.97
2019-05-30T11:15:33.571Z,3.13
2019-05-30T11:18:02.198Z,3.30
2019-05-30T11:20:30.737Z,2.53
2019-05-30T11:22:59.273Z,2.27
2019-05-30T11:25:27.947Z,3.63
2019-05-30T11:27:56.883Z,3.47
2019-05-30T11:30:25.633Z,2.63
2019-05-30T11:32:55.218Z,2.40
2019-05-30T11:35:23.913Z,2.40
2019-05-30T11:37:53.089Z,4.40
2019-05-30T11:40:21.870Z,2.83
2019-05-30T11:42:51.230Z,2.20
2019-05-30T11:45:20.280Z,3.27
2019-05-30T11:47:49.557Z,1.90
2019-05-30T11:50:19.351Z,2.80
2019-05-30T11:52:47.938Z,2.27
2019-05-30T11:55:16.654Z,2.27
2019-05-30T11:57:45.234Z,2.37
2019-05-30T12:00:15.722Z,2.17
2019-05-30T12:02:44.267Z,2.50
2019-05-30T12:05:13.907Z,2.90
2019-05-30T12:07:42.585Z,1.73
2019-05-30T12:10:12.007Z,2.60
2019-05-30T12:12:40.509Z,2.17
2019-05-30T12:15:10.574Z,2.60
2019-05-30T12:17:39.201Z,2.03
2019-05-30T12:20:09.624Z,2.87
2019-05-30T12:22:38.379Z,3.10
2019-05-30T12:25:07.926Z,2.00
2019-05-30T12:27:36.494Z,1.93
2019-05-30T12:30:07.477Z,1.90
2019-05-30T12:32:36.030Z,2.37
2019-05-30T12:35:07.928Z,2.90
2019-05-30T12:37:53.382Z,2.20
2019-05-30T12:40:09.221Z,3.07
2019-05-30T12:42:38.011Z,5.33
2019-05-30T12:45:09.103Z,2.23
2019-05-30T12:47:37.738Z,2.10
2019-05-30T12:50:08.351Z,2.27
2019-05-30T12:52:36.949Z,3.07
2019-05-30T12:55:07.530Z,3.50
2019-05-30T12:57:36.340Z,3.23
2019-05-30T13:00:19.097Z,4.00
2019-05-30T13:02:46.744Z,3.10
2019-05-30T13:05:15.570Z,2.03
2019-05-30T13:07:44.059Z,2.00
2019-05-30T13:10:12.679Z,2.30
2019-05-30T13:12:41.289Z,2.03
2019-05-30T13:15:10.225Z,2.97
2019-05-30T13:17:38.768Z,2.13
2019-05-30T13:20:08.797Z,1.80
2019-05-30T13:22:37.630Z,3.40
2019-05-30T13:25:16.690Z,1.60
2019-05-30T13:27:45.287Z,2.00
2019-05-30T13:30:14.559Z,2.60
2019-05-30T13:32:43.123Z,3.57
2019-05-30T13:35:12.585Z,3.20
2019-05-30T13:37:41.143Z,1.87
2019-05-30T13:40:24.455Z,2.13
2019-05-30T13:42:42.068Z,2.23
2019-05-30T13:45:12.024Z,3.93
2019-05-30T13:47:40.685Z,2.37
2019-05-30T13:50:13.449Z,1.80
2019-05-30T13:52:41.340Z,2.17
2019-05-30T13:55:10.526Z,2.83
2019-05-30T13:57:39.113Z,1.87
2019-05-30T14:00:10.641Z,1.60
2019-05-30T14:02:39.567Z,2.10
2019-05-30T14:05:08.495Z,2.13
2019-05-30T14:07:37.213Z,1.80
2019-05-30T14:10:06.792Z,1.80
2019-05-30T14:12:35.343Z,2.10
2019-05-30T14:15:14.081Z,1.93
2019-05-30T14:17:41.673Z,2.50
2019-05-30T14:20:11.513Z,2.30
2019-05-30T14:22:40.076Z,5.30
2019-05-30T14:25:09.852Z,3.27
2019-05-30T14:27:38.790Z,2.30
2019-05-30T14:30:09.002Z,2.40
2019-05-30T14:32:37.899Z,2.40
2019-05-30T14:35:11.927Z,2.93
2019-05-30T14:37:40.712Z,2.43
2019-05-30T14:40:11.360Z,3.73
2019-05-30T14:42:40.266Z,2.40
2019-05-30T14:45:10.621Z,2.20
2019-05-30T14:47:39.359Z,2.73
2019-05-30T14:50:09.014Z,2.10
2019-05-30T14:52:37.570Z,1.77
2019-05-30T14:55:09.053Z,2.40
2019-05-30T14:57:38.049Z,2.17
2019-05-30T15:00:09.421Z,1.77
2019-05-30T15:02:38.371Z,1.80
2019-05-30T15:05:07.553Z,2.30
2019-05-30T15:07:36.202Z,2.53
2019-05-30T15:10:10.644Z,3.40
2019-05-30T15:12:39.512Z,2.53
2019-05-30T15:15:12.621Z,2.10
2019-05-30T15:17:39.104Z,2.93
2019-05-30T15:20:10.023Z,3.57
2019-05-30T15:22:38.407Z,3.63
2019-05-30T15:25:08.369Z,3.93
2019-05-30T15:27:37.280Z,2.60
2019-05-30T15:30:10.640Z,5.17
2019-05-30T15:32:39.362Z,3.07
2019-05-30T15:35:08.811Z,2.07
2019-05-30T15:37:40.592Z,3.00
2019-05-30T15:40:08.899Z,1.80
2019-05-30T15:42:37.453Z,2.53
2019-05-30T15:45:10.079Z,2.20
2019-05-30T15:47:38.760Z,1.80
2019-05-30T15:50:08.374Z,1.90
2019-05-30T15:52:37.352Z,3.37
2019-05-30T15:55:09.212Z,2.00
2019-05-30T15:57:38.292Z,1.97
2019-05-30T16:00:09.811Z,2.27
2019-05-30T16:02:38.516Z,2.43
2019-05-30T16:05:08.006Z,2.43
2019-05-30T16:07:36.613Z,3.20
2019-05-30T16:10:07.296Z,3.07
2019-05-30T16:12:35.908Z,4.40
2019-05-30T16:15:06.869Z,2.07
2019-05-30T16:17:35.355Z,3.80
2019-05-30T16:20:06.313Z,2.47
2019-05-30T16:22:34.909Z,2.10
2019-05-30T16:25:03.984Z,2.80
2019-05-30T16:27:32.479Z,3.73
2019-05-30T16:30:00.993Z,3.27
2019-05-30T16:32:29.562Z,2.20
2019-05-30T16:34:58.181Z,2.60
2019-05-30T16:37:26.690Z,2.30
2019-05-30T16:40:05.206Z,2.40
2019-05-30T16:42:26.457Z,2.30
2019-05-30T16:44:55.048Z,2.40
2019-05-30T16:47:23.590Z,2.17
2019-05-30T16:49:52.217Z,2.13
2019-05-30T16:52:21.006Z,2.60
2019-05-30T16:54:49.639Z,2.40
2019-05-30T16:57:18.573Z,2.60
2019-05-30T16:59:47.397Z,2.13
2019-05-30T17:02:16.925Z,2.57
2019-05-30T17:04:45.576Z,2.20
2019-05-30T17:07:14.987Z,3.30
2019-05-30T17:09:43.674Z,3.73
2019-05-30T17:12:12.283Z,3.23
2019-05-30T17:14:40.828Z,2.27
2019-05-30T17:17:10.073Z,2.10
2019-05-30T17:19:39.435Z,2.10
2019-05-30T17:22:08.375Z,3.13
2019-05-30T17:24:37.342Z,3.40
2019-05-30T17:27:05.890Z,2.60
2019-05-30T17:29:34.404Z,2.40
2019-05-30T17:32:02.971Z,2.20
2019-05-30T17:34:31.481Z,2.40
2019-05-30T17:36:59.957Z,3.13
2019-05-30T17:39:28.926Z,3.00
2019-05-30T17:41:57.448Z,4.43
2019-05-30T17:44:27.117Z,2.97
2019-05-30T17:46:55.977Z,3.17
2019-05-30T17:49:25.854Z,2.30
2019-05-30T17:51:54.459Z,2.87
2019-05-30T17:54:23.819Z,2.40
2019-05-30T17:56:52.504Z,2.67
2019-05-30T17:59:22.257Z,2.40
2019-05-30T18:01:50.925Z,2.47
2019-05-30T18:04:20.421Z,2.40
2019-05-30T18:06:49.016Z,2.57
2019-05-30T18:09:17.576Z,3.93
2019-05-30T18:11:46.096Z,2.73
2019-05-30T18:14:14.648Z,4.50
2019-05-30T18:16:43.150Z,2.47
2019-05-30T18:19:11.802Z,3.60
2019-05-30T18:21:40.806Z,4.07
2019-05-30T18:24:09.388Z,3.20
2019-05-30T18:26:37.954Z,2.87
2019-05-30T18:29:06.511Z,2.50
2019-05-30T18:31:35.148Z,2.30
2019-05-30T18:34:03.722Z,2.67
2019-05-30T18:36:32.658Z,3.10
2019-05-30T18:39:01.372Z,2.73
2019-05-30T18:41:30.911Z,3.50
2019-05-30T18:43:59.695Z,2.40
2019-05-30T18:46:29.170Z,2.37
2019-05-30T18:48:57.862Z,2.70
2019-05-30T18:51:26.410Z,2.70
2019-05-30T18:53:55.018Z,2.50
2019-05-30T18:56:24.553Z,3.70
2019-05-30T18:58:53.146Z,2.50
2019-05-30T19:01:21.630Z,2.50
2019-05-30T19:03:50.112Z,2.50
2019-05-30T19:06:18.621Z,2.93
2019-05-30T19:08:47.104Z,3.03
2019-05-30T19:11:27.187Z,3.47
2019-05-30T19:13:45.822Z,2.83
2019-05-30T19:16:14.409Z,3.10
2019-05-30T19:18:42.929Z,3.00
2019-05-30T19:21:11.866Z,3.03
2019-05-30T19:23:40.430Z,8.43
2019-05-30T19:26:08.951Z,2.73
2019-05-30T19:28:37.527Z,2.60
2019-05-30T19:31:06.235Z,2.70
2019-05-30T19:33:34.915Z,3.13
2019-05-30T19:36:03.585Z,3.33
2019-05-30T19:38:33.272Z,4.60
2019-05-30T19:41:02.350Z,2.87
2019-05-30T19:43:31.756Z,2.80
2019-05-30T19:46:00.438Z,2.70
2019-05-30T19:48:30.190Z,3.10
2019-05-30T19:50:58.903Z,2.50
2019-05-30T19:53:28.722Z,2.73
2019-05-30T19:55:57.434Z,3.23
2019-05-30T19:58:26.003Z,2.93
2019-05-30T20:00:58.889Z,4.57
2019-05-30T20:03:36.514Z,2.87
2019-05-30T20:05:55.158Z,4.43
2019-05-30T20:08:23.676Z,2.67
2019-05-30T20:10:52.302Z,3.93
2019-05-30T20:13:20.813Z,3.90
2019-05-30T20:15:49.363Z,2.97
2019-05-30T20:18:17.972Z,2.77
2019-05-30T20:20:56.769Z,3.27
2019-05-30T20:23:16.863Z,3.20
2019-05-30T20:25:46.125Z,4.73
2019-05-30T20:28:14.855Z,2.70
2019-05-30T20:30:43.360Z,2.93
2019-05-30T20:33:11.930Z,3.90
2019-05-30T20:35:42.149Z,2.90
2019-05-30T20:38:11.218Z,5.00
2019-05-30T20:40:40.848Z,5.07
2019-05-30T20:43:09.539Z,2.83
2019-05-30T20:45:42.006Z,3.60
2019-05-30T20:48:08.255Z,2.63
2019-05-30T20:50:37.141Z,4.63
2019-05-30T20:53:05.807Z,3.23
2019-05-30T20:55:34.350Z,3.37
2019-05-30T20:58:02.933Z,3.50
2019-05-30T21:00:40.174Z,2.60
2019-05-30T21:03:09.043Z,3.50
2019-05-30T21:05:37.763Z,3.20
2019-05-30T21:08:06.686Z,3.50
2019-05-30T21:10:36.936Z,5.03
2019-05-30T21:13:06.486Z,3.30
2019-05-30T21:15:35.827Z,3.20
2019-05-30T21:18:05.163Z,3.40
2019-05-30T21:20:33.812Z,3.27
2019-05-30T21:23:02.324Z,3.50
2019-05-30T21:25:30.838Z,5.13
2019-05-30T21:27:59.486Z,4.93
2019-05-30T21:30:28.048Z,5.17
2019-05-30T21:32:57.033Z,3.90
2019-05-30T21:35:25.677Z,4.83
2019-05-30T21:37:54.712Z,3.30
2019-05-30T21:40:23.273Z,3.50
2019-05-30T21:43:04.722Z,3.37
2019-05-30T21:45:22.513Z,3.73
2019-05-30T21:47:51.090Z,4.13
2019-05-30T21:50:19.606Z,4.20
2019-05-30T21:52:49.716Z,3.20
2019-05-30T21:55:18.466Z,4.00
2019-05-30T21:57:48.130Z,3.20
2019-05-30T22:00:48.553Z,3.20
2019-05-30T22:03:17.309Z,3.47
2019-05-30T22:05:48.130Z,4.20
2019-05-30T22:08:16.275Z,3.60
2019-05-30T22:10:45.435Z,4.13
2019-05-30T22:13:14.529Z,3.47
2019-05-30T22:15:43.669Z,3.90
2019-05-30T22:18:12.643Z,3.40
2019-05-30T22:20:41.734Z,3.90
2019-05-30T22:23:11.116Z,3.77
2019-05-30T22:25:39.772Z,6.00
2019-05-30T22:28:08.262Z,3.00
2019-05-30T22:30:36.818Z,5.80
2019-05-30T22:33:05.316Z,3.10
2019-05-30T22:35:33.800Z,3.70
2019-05-30T22:38:02.453Z,4.10
2019-05-30T22:40:30.955Z,3.80
2019-05-30T22:42:59.521Z,3.33
2019-05-30T22:45:28.039Z,3.40
2019-05-30T22:47:56.816Z,4.07
2019-05-30T22:50:25.474Z,3.50
2019-05-30T22:52:54.066Z,3.57
2019-05-30T22:55:22.921Z,3.30
2019-05-30T22:57:52.520Z,4.90
2019-05-30T23:00:21.800Z,3.43
2019-05-30T23:02:50.378Z,3.20
2019-05-30T23:05:18.904Z,3.53
2019-05-30T23:07:47.462Z,3.50
2019-05-30T23:10:16.112Z,3.47
2019-05-30T23:12:45.803Z,4.83
2019-05-30T23:15:15.311Z,3.13
2019-05-30T23:17:43.830Z,4.10
2019-05-30T23:20:12.662Z,3.93
2019-05-30T23:22:41.232Z,3.87
2019-05-30T23:25:09.907Z,3.20
2019-05-30T23:27:38.403Z,3.73
2019-05-30T23:30:07.941Z,3.50
2019-05-30T23:32:36.589Z,3.70
2019-05-30T23:35:06.033Z,2.90
2019-05-30T23:37:34.556Z,3.37
2019-05-30T23:40:03.240Z,4.30
2019-05-30T23:42:31.803Z,3.53
2019-05-30T23:45:00.337Z,3.30
2019-05-30T23:47:29.710Z,3.53
2019-05-30T23:49:58.340Z,4.20
2019-05-30T23:52:26.853Z,4.07
2019-05-30T23:54:56.295Z,3.80
2019-05-30T23:57:24.922Z,3.60
2019-05-30T23:59:54.630Z,3.67
